Main page
METAR-TAF:

METAR-TAF

Airports :

RAF Fairford

Fairford, England

latitude: 51-41N, longitude: 001-47W, elevation: 87 m

Current weather observation

The report was made 1 hour and 11 minutes ago, at 07:56 UTC
Wind 14 kt from the West/Southwest
Temperature 19°C
Humidity 83%
Pressure 1017 hPa
Visibility 10 km or more
Broken clouds at a height of 1100 ft
Broken clouds at a height of 3300 ft

METAR: EGVA 150756Z AUTO 24014KT 9999 BKN011 BKN033 19/16 A3003 RMK AO2 BKN011 V OVC SLP171 T01890157 $

Time: 10:07 (09:07 UTC)


TAF: missing

Weather observations and forecasts of more than 4000 airports (METAR and TAF reports).

The available stations are represented by yellow and red dots on the map.

Hover mouse over dot to see the name of the station.

Then click to see weather observations and forecasts.

To change the map : click on the green buttons with a black cross to zoom in, on the green button with a dash to zoom out, or on the green arrows for adjacent maps.


METAR-TAF: